sensor_id;sensor_type;location;lat;lon;timestamp;P1;durP1;ratioP1;P2;durP2;ratioP2
7675;SDS011;3880;51.464;-2.566;2022-07-29T02:00:28;6.27;;;4.30;;
7675;SDS011;3880;51.464;-2.566;2022-07-29T02:06:00;6.33;;;4.37;;
7675;SDS011;3880;51.464;-2.566;2022-07-29T09:26:10;4.63;;;2.45;;
7675;SDS011;3880;51.464;-2.566;2022-07-29T09:28:46;4.30;;;2.50;;
7675;SDS011;3880;51.464;-2.566;2022-07-29T09:31:13;5.63;;;2.05;;
7675;SDS011;3880;51.464;-2.566;2022-07-29T11:42:50;3.35;;;1.67;;
7675;SDS011;3880;51.464;-2.566;2022-07-29T11:45:45;4.18;;;1.42;;
7675;SDS011;3880;51.464;-2.566;2022-07-29T11:48:22;2.65;;;1.77;;
7675;SDS011;3880;51.464;-2.566;2022-07-29T11:51:04;5.53;;;1.52;;
7675;SDS011;3880;51.464;-2.566;2022-07-29T11:56:53;4.18;;;1.88;;
7675;SDS011;3880;51.464;-2.566;2022-07-29T12:01:56;3.60;;;1.45;;
7675;SDS011;3880;51.464;-2.566;2022-07-29T12:04:27;6.82;;;2.10;;
7675;SDS011;3880;51.464;-2.566;2022-07-29T12:06:55;9.93;;;2.05;;
7675;SDS011;3880;51.464;-2.566;2022-07-29T12:09:32;5.20;;;1.75;;
7675;SDS011;3880;51.464;-2.566;2022-07-29T12:12:02;9.90;;;2.90;;
7675;SDS011;3880;51.464;-2.566;2022-07-29T12:36:41;3.85;;;1.60;;
7675;SDS011;3880;51.464;-2.566;2022-07-29T12:39:10;3.60;;;1.55;;
7675;SDS011;3880;51.464;-2.566;2022-07-29T12:41:47;3.47;;;1.50;;
7675;SDS011;3880;51.464;-2.566;2022-07-29T12:44:42;3.55;;;1.50;;
7675;SDS011;3880;51.464;-2.566;2022-07-29T12:47:10;2.42;;;1.70;;
7675;SDS011;3880;51.464;-2.566;2022-07-29T12:49:39;4.45;;;1.70;;
7675;SDS011;3880;51.464;-2.566;2022-07-29T12:54:54;2.75;;;1.50;;
7675;SDS011;3880;51.464;-2.566;2022-07-29T12:57:22;9.48;;;1.85;;
7675;SDS011;3880;51.464;-2.566;2022-07-29T13:02:42;2.97;;;1.58;;
7675;SDS011;3880;51.464;-2.566;2022-07-29T13:05:11;4.30;;;1.92;;
7675;SDS011;3880;51.464;-2.566;2022-07-29T13:07:38;3.42;;;1.40;;
7675;SDS011;3880;51.464;-2.566;2022-07-29T13:10:09;7.97;;;2.10;;
7675;SDS011;3880;51.464;-2.566;2022-07-29T13:12:39;3.92;;;1.70;;
7675;SDS011;3880;51.464;-2.566;2022-07-29T13:15:27;2.45;;;1.42;;
7675;SDS011;3880;51.464;-2.566;2022-07-29T13:17:54;3.63;;;2.13;;
7675;SDS011;3880;51.464;-2.566;2022-07-29T13:20:25;1.80;;;1.30;;
7675;SDS011;3880;51.464;-2.566;2022-07-29T13:22:55;4.00;;;1.55;;
7675;SDS011;3880;51.464;-2.566;2022-07-29T13:25:25;4.80;;;2.05;;
7675;SDS011;3880;51.464;-2.566;2022-07-29T13:27:53;36.00;;;4.88;;
7675;SDS011;3880;51.464;-2.566;2022-07-29T13:30:21;8.07;;;2.22;;
7675;SDS011;3880;51.464;-2.566;2022-07-29T13:32:50;5.72;;;1.80;;
7675;SDS011;3880;51.464;-2.566;2022-07-29T13:35:18;3.92;;;1.50;;
7675;SDS011;3880;51.464;-2.566;2022-07-29T13:37:49;1.70;;;1.55;;
7675;SDS011;3880;51.464;-2.566;2022-07-29T13:40:17;6.78;;;1.65;;
7675;SDS011;3880;51.464;-2.566;2022-07-29T13:42:45;5.00;;;2.00;;
7675;SDS011;3880;51.464;-2.566;2022-07-29T13:45:12;9.15;;;1.95;;
7675;SDS011;3880;51.464;-2.566;2022-07-29T13:47:40;3.17;;;1.90;;
7675;SDS011;3880;51.464;-2.566;2022-07-29T13:50:07;7.22;;;1.95;;
7675;SDS011;3880;51.464;-2.566;2022-07-29T13:52:35;2.20;;;1.40;;
7675;SDS011;3880;51.464;-2.566;2022-07-29T13:55:06;3.50;;;2.00;;
7675;SDS011;3880;51.464;-2.566;2022-07-29T13:57:34;7.22;;;2.00;;
7675;SDS011;3880;51.464;-2.566;2022-07-29T14:00:01;5.75;;;1.90;;
7675;SDS011;3880;51.464;-2.566;2022-07-29T14:02:30;6.63;;;1.75;;
7675;SDS011;3880;51.464;-2.566;2022-07-29T14:04:58;8.18;;;2.17;;
7675;SDS011;3880;51.464;-2.566;2022-07-29T14:07:25;4.60;;;2.08;;
7675;SDS011;3880;51.464;-2.566;2022-07-29T14:09:52;11.10;;;2.42;;
7675;SDS011;3880;51.464;-2.566;2022-07-29T14:12:21;4.68;;;2.05;;
7675;SDS011;3880;51.464;-2.566;2022-07-29T14:14:48;7.05;;;2.25;;
7675;SDS011;3880;51.464;-2.566;2022-07-29T14:17:15;3.67;;;1.60;;
7675;SDS011;3880;51.464;-2.566;2022-07-29T14:19:43;3.63;;;1.77;;
7675;SDS011;3880;51.464;-2.566;2022-07-29T14:22:10;2.35;;;1.70;;
7675;SDS011;3880;51.464;-2.566;2022-07-29T14:24:37;2.80;;;1.77;;
7675;SDS011;3880;51.464;-2.566;2022-07-29T14:27:05;5.43;;;2.08;;
7675;SDS011;3880;51.464;-2.566;2022-07-29T14:29:34;7.75;;;2.67;;
7675;SDS011;3880;51.464;-2.566;2022-07-29T14:32:02;3.08;;;1.65;;
7675;SDS011;3880;51.464;-2.566;2022-07-29T14:34:29;5.25;;;2.15;;
7675;SDS011;3880;51.464;-2.566;2022-07-29T14:36:56;2.08;;;1.77;;
7675;SDS011;3880;51.464;-2.566;2022-07-29T14:39:24;8.52;;;2.58;;
7675;SDS011;3880;51.464;-2.566;2022-07-29T14:41:51;4.97;;;2.22;;
7675;SDS011;3880;51.464;-2.566;2022-07-29T14:44:18;3.22;;;2.00;;
7675;SDS011;3880;51.464;-2.566;2022-07-29T14:49:46;7.90;;;2.25;;
7675;SDS011;3880;51.464;-2.566;2022-07-29T14:52:22;3.28;;;2.10;;
7675;SDS011;3880;51.464;-2.566;2022-07-29T14:54:50;5.38;;;2.33;;
7675;SDS011;3880;51.464;-2.566;2022-07-29T14:57:17;8.68;;;2.35;;
7675;SDS011;3880;51.464;-2.566;2022-07-29T14:59:44;4.60;;;2.13;;
7675;SDS011;3880;51.464;-2.566;2022-07-29T15:02:11;10.75;;;2.70;;
7675;SDS011;3880;51.464;-2.566;2022-07-29T15:04:40;4.90;;;1.98;;
7675;SDS011;3880;51.464;-2.566;2022-07-29T15:07:11;5.25;;;2.10;;
7675;SDS011;3880;51.464;-2.566;2022-07-29T15:09:38;6.63;;;2.20;;
7675;SDS011;3880;51.464;-2.566;2022-07-29T15:12:06;4.35;;;2.10;;
7675;SDS011;3880;51.464;-2.566;2022-07-29T15:14:33;2.22;;;1.77;;
7675;SDS011;3880;51.464;-2.566;2022-07-29T15:17:00;5.00;;;2.03;;
7675;SDS011;3880;51.464;-2.566;2022-07-29T15:19:28;8.50;;;2.42;;
7675;SDS011;3880;51.464;-2.566;2022-07-29T15:28:18;3.70;;;2.17;;
7675;SDS011;3880;51.464;-2.566;2022-07-29T15:31:02;3.03;;;1.90;;
7675;SDS011;3880;51.464;-2.566;2022-07-29T15:33:32;12.43;;;2.22;;
7675;SDS011;3880;51.464;-2.566;2022-07-29T15:36:05;5.32;;;2.10;;
7675;SDS011;3880;51.464;-2.566;2022-07-29T15:38:44;6.80;;;2.33;;
7675;SDS011;3880;51.464;-2.566;2022-07-29T15:41:15;6.38;;;2.53;;
7675;SDS011;3880;51.464;-2.566;2022-07-29T15:46:38;6.82;;;2.30;;
7675;SDS011;3880;51.464;-2.566;2022-07-29T15:53:42;2.13;;;1.70;;
7675;SDS011;3880;51.464;-2.566;2022-07-29T15:56:26;5.75;;;2.17;;
7675;SDS011;3880;51.464;-2.566;2022-07-29T15:58:55;4.82;;;1.90;;
7675;SDS011;3880;51.464;-2.566;2022-07-29T16:01:25;3.90;;;2.47;;
7675;SDS011;3880;51.464;-2.566;2022-07-29T16:03:58;5.88;;;2.47;;
7675;SDS011;3880;51.464;-2.566;2022-07-29T16:06:29;5.60;;;2.22;;
7675;SDS011;3880;51.464;-2.566;2022-07-29T16:08:56;3.60;;;1.65;;
7675;SDS011;3880;51.464;-2.566;2022-07-29T16:11:26;3.88;;;1.67;;
7675;SDS011;3880;51.464;-2.566;2022-07-29T16:13:53;4.97;;;2.08;;
7675;SDS011;3880;51.464;-2.566;2022-07-29T16:16:20;13.13;;;2.22;;
7675;SDS011;3880;51.464;-2.566;2022-07-29T16:18:47;6.32;;;2.50;;
7675;SDS011;3880;51.464;-2.566;2022-07-29T16:21:14;4.47;;;2.38;;
7675;SDS011;3880;51.464;-2.566;2022-07-29T16:23:42;5.20;;;1.90;;
7675;SDS011;3880;51.464;-2.566;2022-07-29T16:26:09;5.00;;;1.95;;
7675;SDS011;3880;51.464;-2.566;2022-07-29T16:28:37;3.15;;;2.33;;
7675;SDS011;3880;51.464;-2.566;2022-07-29T16:31:04;5.57;;;1.80;;
7675;SDS011;3880;51.464;-2.566;2022-07-29T16:33:32;2.47;;;2.20;;
7675;SDS011;3880;51.464;-2.566;2022-07-29T16:35:59;2.05;;;1.95;;
7675;SDS011;3880;51.464;-2.566;2022-07-29T16:38:28;6.05;;;1.95;;
7675;SDS011;3880;51.464;-2.566;2022-07-29T16:40:57;6.43;;;3.10;;
7675;SDS011;3880;51.464;-2.566;2022-07-29T16:43:24;8.15;;;4.47;;
7675;SDS011;3880;51.464;-2.566;2022-07-29T16:45:56;6.45;;;2.28;;
7675;SDS011;3880;51.464;-2.566;2022-07-29T16:48:27;2.88;;;2.05;;
7675;SDS011;3880;51.464;-2.566;2022-07-29T16:51:04;14.20;;;3.65;;
7675;SDS011;3880;51.464;-2.566;2022-07-29T16:57:35;2.92;;;2.25;;
7675;SDS011;3880;51.464;-2.566;2022-07-29T17:00:03;6.53;;;3.40;;
7675;SDS011;3880;51.464;-2.566;2022-07-29T17:02:33;5.60;;;1.67;;
7675;SDS011;3880;51.464;-2.566;2022-07-29T17:05:03;2.65;;;1.98;;
7675;SDS011;3880;51.464;-2.566;2022-07-29T17:07:33;1.95;;;1.70;;
7675;SDS011;3880;51.464;-2.566;2022-07-29T17:10:04;1.70;;;1.30;;
7675;SDS011;3880;51.464;-2.566;2022-07-29T17:12:36;3.55;;;2.20;;
7675;SDS011;3880;51.464;-2.566;2022-07-29T17:15:07;3.63;;;1.95;;
7675;SDS011;3880;51.464;-2.566;2022-07-29T17:17:42;1.60;;;1.50;;
7675;SDS011;3880;51.464;-2.566;2022-07-29T17:20:16;7.22;;;1.60;;
7675;SDS011;3880;51.464;-2.566;2022-07-29T19:38:47;5.43;;;3.08;;
7675;SDS011;3880;51.464;-2.566;2022-07-29T20:41:16;6.65;;;3.20;;
7675;SDS011;3880;51.464;-2.566;2022-07-29T20:43:43;7.37;;;3.37;;
7675;SDS011;3880;51.464;-2.566;2022-07-29T20:46:10;6.70;;;3.37;;
7675;SDS011;3880;51.464;-2.566;2022-07-29T20:48:40;6.57;;;3.33;;
7675;SDS011;3880;51.464;-2.566;2022-07-29T21:17:02;5.83;;;2.53;;
7675;SDS011;3880;51.464;-2.566;2022-07-29T21:19:31;4.80;;;2.50;;
7675;SDS011;3880;51.464;-2.566;2022-07-29T21:21:58;9.48;;;3.40;;
7675;SDS011;3880;51.464;-2.566;2022-07-29T21:24:25;5.63;;;3.33;;
7675;SDS011;3880;51.464;-2.566;2022-07-29T21:26:53;4.38;;;2.70;;
7675;SDS011;3880;51.464;-2.566;2022-07-29T21:29:40;7.27;;;3.17;;
7675;SDS011;3880;51.464;-2.566;2022-07-29T21:32:07;6.20;;;3.50;;
7675;SDS011;3880;51.464;-2.566;2022-07-29T21:34:34;8.27;;;3.67;;
7675;SDS011;3880;51.464;-2.566;2022-07-29T21:37:01;11.50;;;3.30;;
7675;SDS011;3880;51.464;-2.566;2022-07-29T21:39:29;7.27;;;3.60;;
7675;SDS011;3880;51.464;-2.566;2022-07-29T21:41:56;8.47;;;3.43;;
7675;SDS011;3880;51.464;-2.566;2022-07-29T21:44:23;5.07;;;2.80;;
7675;SDS011;3880;51.464;-2.566;2022-07-29T21:52:02;8.93;;;3.57;;
7675;SDS011;3880;51.464;-2.566;2022-07-29T21:54:30;6.37;;;3.63;;
7675;SDS011;3880;51.464;-2.566;2022-07-29T21:56:57;4.37;;;2.87;;
7675;SDS011;3880;51.464;-2.566;2022-07-29T21:59:24;8.50;;;4.33;;
7675;SDS011;3880;51.464;-2.566;2022-07-29T22:01:51;5.37;;;2.80;;
7675;SDS011;3880;51.464;-2.566;2022-07-29T22:04:18;5.17;;;3.33;;
7675;SDS011;3880;51.464;-2.566;2022-07-29T22:06:45;6.57;;;3.47;;
7675;SDS011;3880;51.464;-2.566;2022-07-29T22:09:14;14.83;;;3.17;;
7675;SDS011;3880;51.464;-2.566;2022-07-29T22:11:41;8.63;;;3.70;;
7675;SDS011;3880;51.464;-2.566;2022-07-29T22:14:08;5.00;;;3.37;;
7675;SDS011;3880;51.464;-2.566;2022-07-29T22:16:36;4.60;;;3.10;;
7675;SDS011;3880;51.464;-2.566;2022-07-29T22:19:03;6.40;;;3.07;;
7675;SDS011;3880;51.464;-2.566;2022-07-29T22:21:30;11.97;;;3.20;;
7675;SDS011;3880;51.464;-2.566;2022-07-29T22:23:57;11.93;;;3.57;;
7675;SDS011;3880;51.464;-2.566;2022-07-29T22:26:29;4.00;;;3.10;;
7675;SDS011;3880;51.464;-2.566;2022-07-29T22:28:56;4.43;;;2.90;;
7675;SDS011;3880;51.464;-2.566;2022-07-29T22:31:26;11.77;;;3.40;;
7675;SDS011;3880;51.464;-2.566;2022-07-29T22:33:54;16.60;;;3.03;;
7675;SDS011;3880;51.464;-2.566;2022-07-29T22:36:21;6.03;;;2.97;;
7675;SDS011;3880;51.464;-2.566;2022-07-29T22:38:49;5.37;;;2.70;;
7675;SDS011;3880;51.464;-2.566;2022-07-29T22:41:17;3.30;;;2.40;;
7675;SDS011;3880;51.464;-2.566;2022-07-29T22:43:49;5.20;;;3.53;;
7675;SDS011;3880;51.464;-2.566;2022-07-29T22:46:18;5.90;;;2.47;;
7675;SDS011;3880;51.464;-2.566;2022-07-29T22:48:51;5.43;;;2.13;;
7675;SDS011;3880;51.464;-2.566;2022-07-29T22:51:42;2.83;;;2.50;;
7675;SDS011;3880;51.464;-2.566;2022-07-29T22:54:53;3.67;;;2.00;;
7675;SDS011;3880;51.464;-2.566;2022-07-29T22:57:44;2.50;;;1.97;;
7675;SDS011;3880;51.464;-2.566;2022-07-29T23:00:30;4.47;;;2.20;;
7675;SDS011;3880;51.464;-2.566;2022-07-29T23:03:07;3.87;;;2.30;;
7675;SDS011;3880;51.464;-2.566;2022-07-29T23:06:06;6.53;;;2.40;;
7675;SDS011;3880;51.464;-2.566;2022-07-29T23:29:24;5.63;;;3.10;;
